Time;durP1;ratioP1;P1;durP2;ratioP2;P2;SDS_P1;SDS_P2;PMS_P1;PMS_P2;Temp;Humidity;BMP_temperature;BMP_pressure;BME280_temperature;BME280_humidity;BME280_pressure;Samples;Min_cycle;Max_cycle;Signal;HPM_P1;HPM_P2
2023/07/05 00:00:25;;;;;;;8.65;6.80;;;16.50;99.90;;;;;;4245998;27;20051;-54
2023/07/05 00:02:27;;;;;;;8.80;7.15;;;16.40;99.90;;;;;;4264496;27;20045;-53
2023/07/05 00:04:29;;;;;;;8.43;6.93;;;16.40;99.90;;;;;;4264268;27;20057;-53
2023/07/05 00:06:33;;;;;;;12.85;7.43;;;16.40;99.90;;;;;;4263846;27;20043;-53
2023/07/05 00:08:36;;;;;;;12.63;7.55;;;16.40;99.90;;;;;;4264415;27;20401;-54
2023/07/05 00:10:38;;;;;;;11.07;7.63;;;16.30;99.90;;;;;;4264246;27;20039;-53
2023/07/05 00:12:40;;;;;;;10.70;7.43;;;16.30;99.90;;;;;;4264227;27;20046;-53
2023/07/05 00:14:42;;;;;;;11.80;7.95;;;16.30;99.90;;;;;;4263735;27;20049;-55
2023/07/05 00:16:47;;;;;;;11.43;7.97;;;16.30;99.90;;;;;;4264167;27;20047;-54
2023/07/05 00:18:49;;;;;;;10.38;7.97;;;16.30;99.90;;;;;;4264118;27;20043;-54
2023/07/05 00:20:52;;;;;;;8.70;6.93;;;16.30;99.90;;;;;;4264174;27;20046;-54
2023/07/05 00:22:56;;;;;;;9.82;6.88;;;16.30;99.90;;;;;;4264091;27;20070;-53
2023/07/05 00:25:00;;;;;;;9.85;7.18;;;16.30;99.90;;;;;;4263095;27;20146;-54
2023/07/05 00:27:02;;;;;;;9.90;7.32;;;16.30;99.90;;;;;;4264377;27;20522;-54
2023/07/05 00:29:05;;;;;;;14.82;8.63;;;16.30;99.90;;;;;;4264393;27;20043;-53
2023/07/05 00:31:07;;;;;;;12.80;8.25;;;16.20;99.90;;;;;;4264267;27;20043;-55
2023/07/05 00:33:09;;;;;;;11.68;7.70;;;16.20;99.90;;;;;;4264337;27;20092;-54
2023/07/05 00:35:11;;;;;;;11.07;8.38;;;16.10;99.90;;;;;;4263206;27;20050;-53
2023/07/05 00:37:16;;;;;;;11.68;8.05;;;16.10;99.90;;;;;;4264144;27;20042;-54
2023/07/05 00:39:20;;;;;;;12.93;8.20;;;16.10;99.90;;;;;;4264184;27;20049;-54
2023/07/05 00:41:22;;;;;;;11.15;7.43;;;16.00;99.90;;;;;;4263947;27;20416;-55
2023/07/05 00:43:24;;;;;;;12.27;8.07;;;16.10;99.90;;;;;;4264195;27;20135;-54
2023/07/05 00:45:48;;;;;;;11.82;7.63;;;16.10;99.90;;;;;;4262977;27;20039;-55
2023/07/05 00:47:50;;;;;;;11.05;7.65;;;16.00;99.90;;;;;;4264314;27;20076;-54
2023/07/05 00:49:53;;;;;;;11.90;8.07;;;16.00;99.90;;;;;;4264233;27;20078;-54
2023/07/05 00:51:58;;;;;;;13.50;7.25;;;16.00;99.90;;;;;;4264063;27;20046;-54
2023/07/05 00:54:02;;;;;;;;;;;15.90;99.90;;;;;;4264390;27;20054;-54
2023/07/05 00:56:11;;;;;;;10.40;7.55;;;15.90;99.90;;;;;;4263144;27;19954;-54
2023/07/05 00:58:13;;;;;;;12.63;8.35;;;15.80;99.90;;;;;;4263862;27;20093;-54
2023/07/05 01:00:18;;;;;;;11.13;7.80;;;15.80;99.90;;;;;;4263970;27;20470;-54
2023/07/05 01:02:21;;;;;;;11.35;8.20;;;15.90;99.90;;;;;;4245500;28;20433;-54
2023/07/05 01:04:23;;;;;;;14.07;7.90;;;15.90;99.90;;;;;;4263742;27;20119;-54
2023/07/05 01:06:27;;;;;;;11.18;7.80;;;15.80;99.90;;;;;;4262736;27;20411;-54
2023/07/05 01:08:29;;;;;;;12.27;7.95;;;15.90;99.90;;;;;;4265871;27;20043;-54
2023/07/05 01:10:31;;;;;;;13.15;8.10;;;15.90;99.90;;;;;;4266916;27;20074;-53
2023/07/05 01:12:44;;;;;;;12.50;8.13;;;15.80;99.90;;;;;;4266861;27;20053;-54
2023/07/05 01:14:52;;;;;;;14.27;7.10;;;15.80;99.90;;;;;;4266933;27;20034;-54
2023/07/05 01:17:08;;;;;;;12.30;7.38;;;15.70;99.90;;;;;;4247875;27;20074;-54
2023/07/05 01:19:31;;;;;;;10.93;7.63;;;15.70;99.90;;;;;;4266933;27;20049;-53
2023/07/05 01:21:39;;;;;;;12.25;7.38;;;15.70;99.90;;;;;;4266933;27;20054;-54
2023/07/05 01:24:03;;;;;;;13.32;6.65;;;15.60;99.90;;;;;;4247822;27;20047;-55
2023/07/05 01:26:31;;;;;;;9.73;6.07;;;15.70;99.90;;;;;;4247424;27;20054;-54
2023/07/05 01:28:48;;;;;;;10.65;6.07;;;15.60;99.90;;;;;;4266880;27;20146;-54
2023/07/05 01:31:39;;;;;;;11.48;6.55;;;15.60;99.90;;;;;;4266506;27;20073;-54
2023/07/05 01:33:49;;;;;;;8.98;5.82;;;15.50;99.90;;;;;;4230633;28;20237;-54
2023/07/05 01:35:55;;;;;;;10.68;6.30;;;15.50;99.90;;;;;;4229285;28;20104;-54
2023/07/05 01:37:57;;;;;;;13.38;6.78;;;15.50;99.90;;;;;;4230130;28;20044;-54
2023/07/05 01:40:00;;;;;;;12.43;6.28;;;15.60;99.90;;;;;;4230431;28;20043;-53
2023/07/05 01:42:05;;;;;;;13.48;6.13;;;15.60;99.90;;;;;;4230303;28;20065;-54
2023/07/05 01:44:08;;;;;;;13.15;5.85;;;15.40;99.90;;;;;;4230335;28;20039;-54
2023/07/05 01:46:25;;;;;;;12.18;5.60;;;15.50;99.90;;;;;;4229168;28;20062;-54
2023/07/05 01:48:37;;;;;;;9.13;5.75;;;15.60;99.90;;;;;;4230195;28;20048;-54
2023/07/05 01:50:47;;;;;;;7.43;5.30;;;15.60;99.90;;;;;;4230070;28;20044;-54
2023/07/05 01:52:56;;;;;;;8.43;5.22;;;15.50;99.90;;;;;;4229774;28;20044;-54
2023/07/05 01:55:08;;;;;;;12.32;5.35;;;15.60;99.90;;;;;;4229586;28;20056;-56
2023/07/05 01:57:16;;;;;;;8.32;4.78;;;15.60;99.90;;;;;;4230103;28;20480;-54
2023/07/05 01:59:22;;;;;;;9.85;5.18;;;15.60;99.90;;;;;;4213266;28;20076;-54
2023/07/05 02:01:26;;;;;;;10.57;5.00;;;15.50;99.90;;;;;;4230049;28;20078;-54
2023/07/05 02:03:30;;;;;;;11.48;4.50;;;15.60;99.90;;;;;;4229849;28;20071;-54
2023/07/05 02:05:33;;;;;;;11.82;4.70;;;15.60;99.90;;;;;;4228918;28;20071;-53
2023/07/05 02:07:37;;;;;;;10.95;4.85;;;15.60;99.90;;;;;;4244481;27;20073;-54
2023/07/05 02:09:41;;;;;;;7.95;4.72;;;15.50;99.90;;;;;;4266215;27;20500;-53
2023/07/05 02:11:43;;;;;;;8.70;3.90;;;15.50;99.90;;;;;;4266255;27;20133;-54
2023/07/05 02:13:46;;;;;;;7.10;4.28;;;15.40;99.90;;;;;;4266251;27;20062;-54
2023/07/05 02:15:50;;;;;;;13.10;4.13;;;15.40;99.90;;;;;;4265147;27;20043;-54
2023/07/05 02:17:53;;;;;;;9.43;4.35;;;15.40;99.90;;;;;;4266039;27;20047;-53
2023/07/05 02:19:55;;;;;;;17.15;4.15;;;15.40;99.90;;;;;;4265713;27;20588;-53
2023/07/05 02:21:57;;;;;;;7.15;3.47;;;15.30;99.90;;;;;;4266017;27;20047;-54
2023/07/05 02:24:01;;;;;;;7.72;3.80;;;15.30;99.90;;;;;;4265575;27;20043;-54
2023/07/05 02:26:06;;;;;;;8.77;3.80;;;15.30;99.90;;;;;;4264669;27;20066;-54
2023/07/05 02:28:09;;;;;;;10.77;4.03;;;15.30;99.90;;;;;;4265710;27;20074;-53
2023/07/05 02:30:13;;;;;;;8.52;3.15;;;15.30;99.90;;;;;;4265690;27;20053;-53
2023/07/05 02:32:15;;;;;;;12.30;3.97;;;15.30;99.90;;;;;;4265859;27;20043;-53
2023/07/05 02:34:17;;;;;;;8.30;4.03;;;15.30;99.90;;;;;;4265654;27;20043;-53
2023/07/05 02:36:19;;;;;;;8.20;3.65;;;15.30;99.90;;;;;;4264219;27;20489;-53
2023/07/05 02:38:21;;;;;;;8.65;3.58;;;15.20;99.90;;;;;;4265855;27;20070;-53
2023/07/05 02:40:25;;;;;;;7.22;3.63;;;15.30;99.90;;;;;;4265407;27;20073;-52
2023/07/05 02:42:27;;;;;;;9.02;3.97;;;15.20;99.90;;;;;;4265464;27;20114;-53
2023/07/05 02:44:30;;;;;;;10.27;3.42;;;15.20;99.90;;;;;;4265347;27;20046;-53
2023/07/05 02:46:32;;;;;;;11.05;4.18;;;15.20;99.90;;;;;;4245945;27;20089;-53
2023/07/05 02:48:34;;;;;;;15.40;4.32;;;15.20;99.90;;;;;;4265365;27;20413;-54
2023/07/05 02:50:38;;;;;;;6.78;3.60;;;15.20;99.90;;;;;;4265165;27;20050;-54
2023/07/05 02:52:40;;;;;;;11.77;3.75;;;15.10;99.90;;;;;;4265223;27;20049;-53
2023/07/05 02:54:43;;;;;;;15.05;4.13;;;15.00;99.90;;;;;;4265356;27;20169;-53
2023/07/05 02:56:46;;;;;;;12.40;3.65;;;15.00;99.90;;;;;;4245987;27;20053;-53
2023/07/05 02:58:48;;;;;;;8.52;3.05;;;15.00;99.90;;;;;;4265249;27;20052;-54
2023/07/05 03:00:50;;;;;;;11.18;3.88;;;15.00;99.90;;;;;;4265182;27;20085;-53
2023/07/05 03:02:53;;;;;;;10.85;3.80;;;14.90;99.90;;;;;;4265084;27;20046;-53
2023/07/05 03:04:55;;;;;;;10.40;3.63;;;15.00;99.90;;;;;;4264751;27;20111;-53
2023/07/05 03:06:57;;;;;;;11.38;3.90;;;14.90;99.90;;;;;;4263958;27;20498;-53
2023/07/05 03:08:59;;;;;;;11.18;3.67;;;14.90;99.90;;;;;;4265107;27;20051;-54
2023/07/05 03:11:01;;;;;;;8.93;3.17;;;14.90;99.90;;;;;;4265099;27;20039;-53
2023/07/05 03:13:05;;;;;;;8.63;3.53;;;14.90;99.90;;;;;;4264876;27;20508;-54
2023/07/05 03:15:08;;;;;;;9.75;3.28;;;14.90;99.90;;;;;;4265067;27;20055;-53
2023/07/05 03:17:10;;;;;;;7.57;3.00;;;14.90;99.90;;;;;;4263955;27;20043;-53
2023/07/05 03:19:12;;;;;;;10.23;3.08;;;14.80;99.90;;;;;;4264449;27;20042;-54
2023/07/05 03:21:14;;;;;;;9.00;2.92;;;14.70;99.90;;;;;;4265012;27;20469;-53
2023/07/05 03:23:17;;;;;;;9.75;4.07;;;14.70;99.90;;;;;;4264594;27;20115;-53
2023/07/05 03:25:19;;;;;;;9.40;3.17;;;14.80;99.90;;;;;;4264162;27;20470;-52
2023/07/05 03:27:21;;;;;;;9.73;3.38;;;14.70;99.90;;;;;;4246159;27;20049;-53
2023/07/05 03:29:24;;;;;;;7.78;2.65;;;14.80;99.90;;;;;;4264916;27;20047;-53
2023/07/05 03:31:27;;;;;;;9.18;2.85;;;14.70;99.90;;;;;;4264263;27;20099;-53
2023/07/05 03:33:30;;;;;;;9.85;3.33;;;14.80;99.90;;;;;;4264529;27;20100;-54
2023/07/05 03:35:32;;;;;;;9.65;3.22;;;14.80;99.90;;;;;;4263958;27;20133;-52
2023/07/05 03:37:34;;;;;;;9.73;3.08;;;14.80;99.90;;;;;;4264320;27;20077;-53
2023/07/05 03:39:36;;;;;;;14.65;3.13;;;14.80;99.90;;;;;;4264840;27;20076;-53
2023/07/05 03:41:38;;;;;;;7.72;2.60;;;14.70;99.90;;;;;;4264519;27;20468;-53
2023/07/05 03:43:42;;;;;;;9.13;3.20;;;14.70;99.90;;;;;;4264594;27;20047;-53
2023/07/05 03:45:45;;;;;;;6.15;2.42;;;14.70;99.90;;;;;;4263712;27;20278;-54
2023/07/05 03:47:47;;;;;;;8.73;2.53;;;14.60;99.90;;;;;;4264501;27;20074;-53
2023/07/05 03:49:49;;;;;;;9.85;2.88;;;14.70;99.90;;;;;;4264393;27;20046;-53
2023/07/05 03:51:52;;;;;;;13.60;2.85;;;14.80;99.90;;;;;;4264721;27;20055;-54
2023/07/05 03:53:56;;;;;;;9.35;2.15;;;14.70;99.90;;;;;;4264498;27;20138;-53
2023/07/05 03:56:01;;;;;;;7.13;2.55;;;14.70;99.90;;;;;;4263720;27;20047;-54
2023/07/05 03:58:03;;;;;;;9.65;2.75;;;14.70;99.90;;;;;;4246084;27;20051;-53
2023/07/05 04:00:06;;;;;;;11.35;2.40;;;14.70;99.90;;;;;;4264272;27;20054;-53
2023/07/05 04:02:10;;;;;;;7.80;2.70;;;14.80;99.90;;;;;;4264576;27;20075;-52
2023/07/05 04:04:12;;;;;;;11.25;3.35;;;14.80;99.90;;;;;;4264088;27;20047;-54
2023/07/05 04:06:15;;;;;;;10.35;2.60;;;14.80;99.90;;;;;;4263341;27;20429;-53
2023/07/05 04:08:17;;;;;;;9.02;2.75;;;14.70;99.90;;;;;;4246019;27;20066;-54
2023/07/05 04:10:19;;;;;;;12.43;3.03;;;14.80;99.90;;;;;;4264486;27;20495;-54
2023/07/05 04:12:21;;;;;;;7.25;2.85;;;14.70;99.90;;;;;;4264317;27;20049;-54
2023/07/05 04:14:24;;;;;;;12.48;2.33;;;14.80;99.90;;;;;;4264399;27;20050;-54
2023/07/05 04:16:26;;;;;;;13.52;3.30;;;14.80;99.90;;;;;;4262952;27;20057;-53
2023/07/05 04:18:32;;;;;;;9.95;2.70;;;14.80;99.90;;;;;;4264074;27;20062;-53
2023/07/05 04:20:36;;;;;;;7.43;2.40;;;14.90;99.90;;;;;;4264272;27;20042;-52
2023/07/05 04:22:40;;;;;;;12.47;2.67;;;14.80;99.90;;;;;;4264020;27;20050;-52
2023/07/05 04:24:42;;;;;;;8.35;2.72;;;14.80;99.90;;;;;;4264025;27;20054;-52
2023/07/05 04:26:44;;;;;;;8.40;2.72;;;14.80;99.90;;;;;;4263225;27;20047;-54
2023/07/05 04:28:47;;;;;;;9.48;2.88;;;14.90;99.90;;;;;;4264367;27;20039;-53
2023/07/05 04:30:50;;;;;;;11.75;2.78;;;14.80;99.90;;;;;;4264391;27;20043;-51
2023/07/05 04:32:52;;;;;;;9.77;3.10;;;14.90;99.90;;;;;;4263793;27;20046;-50
2023/07/05 04:34:56;;;;;;;9.40;2.90;;;14.90;99.90;;;;;;4264280;27;20074;-52
2023/07/05 04:36:58;;;;;;;7.75;2.90;;;14.80;99.90;;;;;;4263412;27;20345;-52
2023/07/05 04:39:00;;;;;;;10.48;3.20;;;14.80;99.90;;;;;;4264229;27;20039;-52
2023/07/05 04:41:03;;;;;;;9.98;3.58;;;14.80;99.90;;;;;;4264119;27;20039;-52
2023/07/05 04:43:05;;;;;;;9.55;3.00;;;14.90;99.90;;;;;;4265846;27;20050;-52
2023/07/05 04:45:08;;;;;;;12.32;3.83;;;14.80;99.90;;;;;;4267461;27;20450;-53
2023/07/05 04:47:10;;;;;;;9.73;3.63;;;14.80;99.90;;;;;;4266207;27;20505;-51
2023/07/05 04:49:12;;;;;;;11.95;3.50;;;14.80;99.90;;;;;;4267345;27;20065;-52
2023/07/05 04:51:16;;;;;;;14.70;4.18;;;14.70;99.90;;;;;;4267320;27;20077;-53
2023/07/05 04:53:18;;;;;;;15.27;3.47;;;14.80;99.90;;;;;;4267459;27;20130;-52
2023/07/05 04:55:20;;;;;;;12.07;3.20;;;14.80;99.90;;;;;;4267085;27;20042;-52
2023/07/05 04:57:22;;;;;;;9.07;3.35;;;14.80;99.90;;;;;;4266075;27;20122;-52
2023/07/05 04:59:33;;;;;;;12.45;4.07;;;14.90;99.90;;;;;;4267358;27;20481;-52
2023/07/05 05:01:35;;;;;;;8.90;3.22;;;14.90;99.90;;;;;;4248530;27;20130;-52
2023/07/05 05:03:38;;;;;;;10.77;3.33;;;15.00;99.90;;;;;;4267368;27;20042;-54
2023/07/05 05:05:42;;;;;;;13.50;3.50;;;15.00;99.90;;;;;;4266517;27;20497;-52
2023/07/05 05:07:46;;;;;;;16.57;3.60;;;15.00;99.90;;;;;;4266980;27;20053;-51
2023/07/05 05:09:48;;;;;;;8.30;3.28;;;15.00;99.90;;;;;;4267151;27;20047;-52
2023/07/05 05:11:50;;;;;;;10.45;3.58;;;15.00;99.90;;;;;;4266989;27;20405;-54
2023/07/05 05:13:52;;;;;;;10.07;4.03;;;15.00;99.90;;;;;;4267153;27;20169;-53
2023/07/05 05:15:55;;;;;;;12.93;3.80;;;15.10;99.90;;;;;;4266011;27;20528;-53
2023/07/05 05:17:57;;;;;;;13.25;4.07;;;15.20;99.90;;;;;;4266853;27;20126;-55
2023/07/05 05:19:59;;;;;;;11.07;3.53;;;15.20;99.90;;;;;;4266978;27;20439;-53
2023/07/05 05:22:02;;;;;;;17.70;3.63;;;15.20;99.90;;;;;;4266745;27;20061;-54
2023/07/05 05:24:06;;;;;;;9.38;3.45;;;15.20;99.90;;;;;;4266600;27;20057;-54
2023/07/05 05:26:08;;;;;;;9.03;3.67;;;15.20;99.90;;;;;;4265778;27;20046;-52
2023/07/05 05:28:10;;;;;;;13.88;3.40;;;15.30;99.90;;;;;;4266693;27;20500;-53
2023/07/05 05:30:13;;;;;;;13.40;3.95;;;15.30;99.90;;;;;;4266383;27;20046;-51
2023/07/05 05:32:15;;;;;;;15.63;3.95;;;15.40;99.90;;;;;;4266642;27;20126;-52
2023/07/05 05:34:17;;;;;;;13.18;3.70;;;15.40;99.90;;;;;;4266692;27;20047;-52
2023/07/05 05:36:19;;;;;;;11.55;3.85;;;15.40;99.90;;;;;;4265829;27;20046;-53
2023/07/05 05:38:21;;;;;;;10.07;3.55;;;15.50;99.90;;;;;;4248098;27;20043;-53
2023/07/05 05:40:25;;;;;;;20.77;4.30;;;15.50;99.90;;;;;;4266624;27;20519;-54
2023/07/05 05:42:29;;;;;;;14.57;3.25;;;15.50;99.90;;;;;;4266572;27;20419;-54
2023/07/05 05:44:31;;;;;;;11.15;3.90;;;15.50;99.90;;;;;;4266268;27;20482;-53
2023/07/05 05:46:33;;;;;;;10.48;3.22;;;15.60;99.90;;;;;;4265595;27;20046;-53
2023/07/05 05:48:36;;;;;;;14.45;3.42;;;15.60;99.90;;;;;;4266507;27;20103;-55
2023/07/05 05:50:38;;;;;;;14.43;3.88;;;15.60;99.90;;;;;;4266546;27;20066;-54
2023/07/05 05:52:40;;;;;;;14.02;3.55;;;15.60;99.90;;;;;;4266459;27;20613;-55
2023/07/05 05:54:42;;;;;;;11.18;3.45;;;15.80;99.90;;;;;;4265943;27;20387;-54
2023/07/05 05:56:46;;;;;;;13.50;3.58;;;15.80;99.90;;;;;;4265368;27;20051;-55
2023/07/05 05:58:48;;;;;;;11.40;3.45;;;15.80;99.90;;;;;;4265782;27;20130;-55
2023/07/05 06:00:51;;;;;;;9.40;3.70;;;15.80;99.90;;;;;;4266351;27;20477;-55
2023/07/05 06:02:56;;;;;;;11.30;3.60;;;15.90;99.90;;;;;;4266298;27;20122;-54
2023/07/05 06:04:58;;;;;;;11.25;3.20;;;15.90;99.90;;;;;;4266228;27;20457;-55
2023/07/05 06:07:00;;;;;;;14.48;3.60;;;16.00;99.90;;;;;;4264886;27;20071;-54
2023/07/05 06:09:02;;;;;;;11.18;3.03;;;16.00;99.90;;;;;;4266110;27;20154;-55
2023/07/05 06:11:07;;;;;;;10.38;2.95;;;16.00;99.90;;;;;;4266198;27;20130;-54
2023/07/05 06:13:10;;;;;;;16.52;3.47;;;16.10;99.90;;;;;;4265727;27;20042;-54
2023/07/05 06:15:14;;;;;;;10.52;3.25;;;16.10;99.90;;;;;;4265939;27;20046;-54
2023/07/05 06:17:16;;;;;;;9.88;3.03;;;16.10;99.90;;;;;;4265084;27;20043;-57
2023/07/05 06:19:18;;;;;;;11.57;3.28;;;16.20;99.90;;;;;;4265944;27;20452;-55
2023/07/05 06:21:20;;;;;;;11.20;3.20;;;16.20;99.90;;;;;;4266044;27;20081;-56
2023/07/05 06:23:23;;;;;;;13.65;3.53;;;16.30;99.90;;;;;;4265532;27;20133;-55
2023/07/05 06:25:25;;;;;;;15.88;3.25;;;16.30;99.90;;;;;;4247238;27;20074;-55
2023/07/05 06:27:27;;;;;;;10.13;3.10;;;16.40;99.90;;;;;;4264353;27;20069;-56
2023/07/05 06:29:30;;;;;;;14.40;3.53;;;16.40;99.90;;;;;;4265630;27;20049;-56
2023/07/05 06:31:33;;;;;;;14.50;2.85;;;16.40;99.90;;;;;;4265526;27;20070;-55
2023/07/05 06:33:35;;;;;;;13.75;3.35;;;16.50;99.90;;;;;;4265819;27;20477;-55
2023/07/05 06:35:37;;;;;;;10.52;2.88;;;16.60;99.90;;;;;;4265414;27;20042;-55
2023/07/05 06:37:40;;;;;;;18.13;4.07;;;16.60;99.90;;;;;;4264765;27;20050;-55
2023/07/05 06:39:42;;;;;;;13.73;3.75;;;16.60;99.90;;;;;;4265736;27;20456;-55
2023/07/05 06:41:44;;;;;;;13.77;3.35;;;16.60;99.90;;;;;;4265921;27;20476;-54
2023/07/05 06:43:48;;;;;;;10.60;3.20;;;16.70;99.90;;;;;;4265600;27;20130;-54
2023/07/05 06:45:53;;;;;;;8.35;2.67;;;16.80;99.90;;;;;;4265451;27;20035;-55
2023/07/05 06:47:55;;;;;;;;;;;16.80;99.90;;;;;;4265248;27;20046;-54
2023/07/05 06:49:57;;;;;;;11.35;2.45;;;16.80;99.90;;;;;;4265626;27;19919;-55
2023/07/05 06:52:00;;;;;;;13.00;2.90;;;16.80;99.90;;;;;;4265483;27;20047;-55
2023/07/05 06:54:02;;;;;;;10.80;3.30;;;17.00;99.90;;;;;;4265332;27;20408;-55
2023/07/05 06:56:04;;;;;;;9.07;3.03;;;17.00;99.70;;;;;;4264848;27;20515;-55
2023/07/05 06:58:06;;;;;;;12.85;2.92;;;17.20;99.30;;;;;;4264804;27;20042;-54
2023/07/05 07:00:10;;;;;;;16.70;3.40;;;17.30;99.20;;;;;;4265236;27;20046;-55
2023/07/05 07:02:13;;;;;;;12.52;3.28;;;17.40;99.20;;;;;;4265206;27;20131;-55
2023/07/05 07:04:16;;;;;;;18.67;3.67;;;17.30;99.40;;;;;;4265392;27;20121;-55
2023/07/05 07:06:18;;;;;;;16.10;3.22;;;17.30;99.30;;;;;;4263370;27;20057;-54
2023/07/05 07:08:21;;;;;;;16.50;3.50;;;17.30;99.30;;;;;;4264864;27;20447;-56
2023/07/05 07:10:23;;;;;;;21.23;3.40;;;17.20;99.10;;;;;;4265328;27;20092;-55
2023/07/05 07:12:27;;;;;;;22.73;3.78;;;17.20;99.50;;;;;;4264838;27;20466;-55
2023/07/05 07:14:29;;;;;;;12.50;3.03;;;17.20;99.50;;;;;;4265221;27;20126;-54
2023/07/05 07:16:31;;;;;;;11.68;3.28;;;17.30;99.00;;;;;;4264022;27;20045;-55
2023/07/05 07:18:36;;;;;;;13.60;3.15;;;17.40;99.10;;;;;;4264750;27;20119;-54
2023/07/05 07:20:39;;;;;;;;;;;17.40;98.50;;;;;;4265403;27;20047;-54
2023/07/05 07:22:41;;;;;;;16.83;3.78;;;17.40;98.70;;;;;;4264853;27;19985;-54
2023/07/05 07:24:43;;;;;;;16.20;2.97;;;17.40;99.20;;;;;;4264786;27;20138;-55
2023/07/05 07:26:45;;;;;;;7.68;2.60;;;17.50;98.80;;;;;;4263339;27;20055;-54
2023/07/05 07:28:50;;;;;;;11.70;3.17;;;17.50;98.80;;;;;;4264858;27;20141;-54
2023/07/05 07:30:52;;;;;;;21.88;3.28;;;17.50;98.70;;;;;;4265120;27;20075;-54
2023/07/05 07:32:55;;;;;;;14.88;3.15;;;17.60;98.60;;;;;;4265143;27;20047;-54
2023/07/05 07:34:58;;;;;;;16.50;3.45;;;17.60;98.50;;;;;;4246272;27;20051;-54
2023/07/05 07:37:00;;;;;;;19.10;4.60;;;17.50;98.60;;;;;;4263817;27;20363;-52
2023/07/05 07:39:03;;;;;;;15.43;3.58;;;17.50;98.70;;;;;;4264514;27;20042;-53
2023/07/05 07:41:11;;;;;;;12.90;3.22;;;17.60;98.40;;;;;;4264283;27;20142;-54
2023/07/05 07:43:13;;;;;;;13.38;2.97;;;17.70;98.30;;;;;;4264428;27;20141;-53
2023/07/05 07:45:15;;;;;;;16.45;3.22;;;17.80;98.40;;;;;;4264555;27;20050;-53
2023/07/05 07:47:17;;;;;;;10.50;2.83;;;17.80;97.80;;;;;;4263363;27;20053;-53
2023/07/05 07:49:20;;;;;;;24.27;4.65;;;17.90;98.10;;;;;;4264727;27;20099;-53
2023/07/05 07:51:25;;;;;;;10.68;2.95;;;18.00;97.70;;;;;;4264436;27;20062;-51
2023/07/05 07:53:39;;;;;;;9.38;3.30;;;17.90;97.90;;;;;;4264625;27;20046;-51
2023/07/05 07:55:41;;;;;;;11.70;2.90;;;17.70;97.90;;;;;;4264241;27;20049;-51
2023/07/05 07:57:43;;;;;;;13.23;3.25;;;17.70;98.20;;;;;;4263470;27;20038;-51
2023/07/05 07:59:45;;;;;;;11.45;2.95;;;17.80;98.00;;;;;;4264263;27;20093;-50
2023/07/05 08:01:48;;;;;;;12.98;2.63;;;17.80;98.30;;;;;;4264694;27;20047;-51
2023/07/05 08:03:51;;;;;;;11.45;3.33;;;17.80;98.40;;;;;;4264402;27;20042;-51
2023/07/05 08:05:53;;;;;;;15.55;3.40;;;17.80;98.50;;;;;;4264436;27;20062;-51
2023/07/05 08:07:56;;;;;;;10.13;3.03;;;17.90;98.70;;;;;;4263277;27;20099;-52
2023/07/05 08:09:59;;;;;;;16.00;2.83;;;18.10;98.50;;;;;;4264105;27;20073;-51
2023/07/05 08:12:01;;;;;;;9.93;3.00;;;18.10;98.20;;;;;;4264451;27;20043;-51
2023/07/05 08:14:03;;;;;;;13.10;3.20;;;18.10;97.30;;;;;;4245889;27;20459;-52
2023/07/05 08:16:06;;;;;;;5.93;2.38;;;18.30;97.60;;;;;;4264241;27;20046;-54
2023/07/05 08:18:08;;;;;;;10.30;3.65;;;18.40;97.80;;;;;;4253931;27;20070;-53
2023/07/05 08:20:13;;;;;;;10.60;2.72;;;18.70;97.30;;;;;;4248908;27;20047;-53
2023/07/05 08:22:15;;;;;;;8.45;2.50;;;18.70;96.70;;;;;;4266831;27;20050;-54
2023/07/05 08:24:21;;;;;;;7.40;2.15;;;18.60;95.90;;;;;;4265534;27;20096;-51
2023/07/05 08:26:28;;;;;;;9.32;2.60;;;18.60;96.30;;;;;;4261459;27;20035;-52
2023/07/05 08:28:30;;;;;;;16.27;3.05;;;18.60;96.60;;;;;;4264024;27;20055;-52
2023/07/05 08:30:34;;;;;;;15.90;2.50;;;18.80;96.80;;;;;;4263595;27;20054;-54
2023/07/05 08:32:37;;;;;;;10.32;3.15;;;19.10;96.40;;;;;;4263286;27;20114;-51
2023/07/05 08:34:40;;;;;;;14.38;2.80;;;19.20;96.10;;;;;;4266461;27;20118;-51
2023/07/05 08:36:42;;;;;;;6.97;2.53;;;19.10;96.00;;;;;;4246877;27;20440;-54
2023/07/05 08:38:47;;;;;;;13.15;2.53;;;19.10;95.80;;;;;;4266020;27;20462;-51
2023/07/05 08:40:52;;;;;;;;;;;19.20;95.80;;;;;;4266782;27;20449;-51
2023/07/05 08:43:02;;;;;;;14.23;3.03;;;19.20;95.60;;;;;;4264034;27;19922;-51
2023/07/05 08:45:12;;;;;;;10.07;2.30;;;19.30;95.60;;;;;;4266417;27;20039;-50
2023/07/05 08:47:22;;;;;;;17.85;2.80;;;19.40;95.50;;;;;;4262899;27;20141;-53
2023/07/05 08:49:30;;;;;;;6.05;2.55;;;19.40;94.80;;;;;;4263785;27;20126;-53
2023/07/05 08:51:33;;;;;;;11.85;2.28;;;19.60;95.10;;;;;;4263744;27;20050;-52
2023/07/05 08:53:47;;;;;;;18.92;2.92;;;19.50;94.40;;;;;;4266068;27;20051;-54
2023/07/05 08:55:55;;;;;;;21.10;3.53;;;19.40;94.80;;;;;;4266668;27;20046;-53
2023/07/05 08:57:58;;;;;;;13.82;2.63;;;19.40;95.20;;;;;;4260354;27;20070;-52
2023/07/05 09:00:11;;;;;;;14.70;2.90;;;19.40;95.50;;;;;;4266443;27;20136;-53
2023/07/05 09:02:16;;;;;;;12.30;2.78;;;19.50;95.40;;;;;;4263385;27;20046;-52
2023/07/05 09:04:23;;;;;;;11.88;2.85;;;19.60;95.40;;;;;;4263771;27;20042;-55
2023/07/05 09:06:31;;;;;;;12.63;2.63;;;19.60;94.70;;;;;;4260155;27;20047;-53
2023/07/05 09:08:43;;;;;;;16.90;3.22;;;19.60;94.80;;;;;;4261877;27;20477;-51
2023/07/05 09:10:51;;;;;;;10.55;2.80;;;19.50;94.90;;;;;;4258977;27;20086;-50
2023/07/05 09:13:09;;;;;;;11.70;3.15;;;19.60;94.80;;;;;;4247024;27;20051;-50
2023/07/05 09:15:17;;;;;;;13.95;3.15;;;19.80;94.10;;;;;;4243913;27;20044;-51
2023/07/05 09:17:28;;;;;;;16.92;3.30;;;19.70;94.30;;;;;;4262724;27;20081;-53
2023/07/05 09:19:41;;;;;;;9.52;2.45;;;19.80;94.70;;;;;;4266795;27;20045;-51
2023/07/05 09:21:47;;;;;;;9.15;2.22;;;19.90;94.30;;;;;;4266406;27;20119;-52
2023/07/05 09:23:54;;;;;;;11.93;2.40;;;20.10;93.80;;;;;;4266517;27;20059;-50
2023/07/05 09:26:02;;;;;;;14.55;3.42;;;20.10;94.10;;;;;;4266592;27;20081;-51
2023/07/05 09:28:14;;;;;;;9.55;2.50;;;19.90;94.30;;;;;;4264774;27;20534;-52
2023/07/05 09:30:24;;;;;;;12.02;2.55;;;19.90;94.40;;;;;;4266594;27;20416;-53
2023/07/05 09:32:31;;;;;;;10.13;2.72;;;19.80;94.30;;;;;;4266329;27;20050;-51
2023/07/05 09:34:39;;;;;;;18.27;4.22;;;19.80;94.00;;;;;;4266745;27;20405;-51
2023/07/05 09:36:42;;;;;;;16.15;3.53;;;19.80;94.60;;;;;;4265427;27;20121;-52
2023/07/05 09:38:48;;;;;;;21.25;3.22;;;19.70;94.70;;;;;;4248000;27;20470;-51
2023/07/05 09:40:55;;;;;;;44.80;5.03;;;19.70;94.50;;;;;;4266264;27;20049;-51
2023/07/05 09:43:00;;;;;;;31.65;4.00;;;20.00;94.70;;;;;;4266407;27;20129;-54
2023/07/05 09:45:04;;;;;;;28.55;3.85;;;20.20;94.50;;;;;;4266290;27;20066;-53
2023/07/05 09:47:07;;;;;;;45.60;5.13;;;20.30;94.30;;;;;;4265484;27;20051;-51
2023/07/05 09:49:12;;;;;;;17.40;2.70;;;20.10;94.00;;;;;;4266030;27;20349;-50
2023/07/05 09:51:15;;;;;;;19.02;3.70;;;20.30;93.90;;;;;;4265612;27;20043;-51
2023/07/05 09:53:35;;;;;;;30.75;4.22;;;20.50;93.70;;;;;;4266327;27;20119;-51
2023/07/05 09:56:03;;;;;;;14.30;3.08;;;20.80;93.30;;;;;;4265418;27;20046;-50
2023/07/05 09:58:13;;;;;;;12.52;2.70;;;20.80;93.00;;;;;;4265251;27;20435;-51
2023/07/05 10:00:26;;;;;;;15.38;3.03;;;20.80;92.90;;;;;;4260630;27;20043;-52
2023/07/05 10:02:31;;;;;;;8.48;2.63;;;20.80;92.90;;;;;;4257770;27;20081;-53
2023/07/05 10:04:43;;;;;;;16.02;2.63;;;20.70;92.70;;;;;;4256585;27;20043;-53
2023/07/05 10:06:47;;;;;;;15.70;2.67;;;20.90;92.50;;;;;;4264836;27;20039;-53
2023/07/05 10:08:51;;;;;;;16.48;2.63;;;21.00;92.50;;;;;;4264720;27;20043;-53
2023/07/05 10:10:53;;;;;;;7.15;2.47;;;20.90;92.30;;;;;;4264194;27;20045;-50
2023/07/05 10:13:02;;;;;;;13.13;2.25;;;20.90;92.40;;;;;;4265909;27;20476;-53
2023/07/05 10:15:20;;;;;;;23.60;3.67;;;21.00;91.80;;;;;;4265910;27;20118;-53
2023/07/05 10:17:38;;;;;;;23.52;3.38;;;21.10;91.50;;;;;;4264793;27;20042;-53
2023/07/05 10:19:42;;;;;;;20.65;3.47;;;21.00;92.10;;;;;;4230206;28;20055;-53
2023/07/05 10:21:47;;;;;;;17.58;2.90;;;20.80;92.10;;;;;;4254254;27;20047;-55
2023/07/05 10:23:49;;;;;;;27.13;3.50;;;20.50;92.20;;;;;;4247813;27;20059;-52
2023/07/05 10:25:53;;;;;;;27.02;3.90;;;20.40;92.90;;;;;;4259501;27;20054;-53
2023/07/05 10:27:59;;;;;;;15.18;2.65;;;20.30;93.00;;;;;;4263795;27;20540;-55
2023/07/05 10:30:05;;;;;;;15.85;2.80;;;20.20;93.00;;;;;;4262835;27;20047;-55
2023/07/05 10:32:18;;;;;;;19.30;4.45;;;20.30;93.40;;;;;;4247913;27;20138;-55
2023/07/05 10:34:23;;;;;;;15.57;2.67;;;20.40;93.20;;;;;;4254036;27;20038;-52
2023/07/05 10:36:25;;;;;;;11.07;2.65;;;20.60;92.80;;;;;;4246395;27;20047;-52
2023/07/05 10:38:29;;;;;;;18.98;3.97;;;20.70;92.30;;;;;;4263803;27;20492;-51
2023/07/05 10:40:32;;;;;;;11.43;2.67;;;20.80;92.70;;;;;;4255835;27;20075;-50
2023/07/05 10:42:35;;;;;;;16.52;2.95;;;20.90;92.40;;;;;;4256127;27;20446;-51